createdAt,value
2023-04-15T00:00:56.455Z,3.65
2023-04-15T00:03:23.311Z,3.25
2023-04-15T00:05:49.992Z,3.50
2023-04-15T00:08:16.463Z,3.12
2023-04-15T00:10:44.439Z,3.20
2023-04-15T00:13:10.943Z,3.47
2023-04-15T00:15:37.917Z,3.12
2023-04-15T00:18:04.725Z,2.87
2023-04-15T00:20:31.591Z,2.65
2023-04-15T00:22:58.984Z,2.28
2023-04-15T00:25:25.390Z,2.50
2023-04-15T00:27:51.857Z,2.42
2023-04-15T00:30:18.716Z,2.72
2023-04-15T00:32:45.260Z,2.60
2023-04-15T00:35:11.739Z,2.50
2023-04-15T00:37:38.243Z,2.60
2023-04-15T00:40:06.581Z,2.42
2023-04-15T00:42:33.328Z,2.50
2023-04-15T00:44:59.768Z,2.40
2023-04-15T00:47:26.404Z,2.33
2023-04-15T00:49:53.040Z,2.90
2023-04-15T00:52:19.498Z,2.35
2023-04-15T00:54:45.924Z,2.17
2023-04-15T00:57:12.500Z,2.03
2023-04-15T00:59:38.936Z,2.30
2023-04-15T01:02:05.492Z,2.60
2023-04-15T01:04:32.275Z,2.70
2023-04-15T01:06:58.870Z,2.50
2023-04-15T01:09:25.277Z,2.60
2023-04-15T01:11:52.004Z,2.65
2023-04-15T01:14:18.444Z,2.62
2023-04-15T01:16:45.549Z,2.53
2023-04-15T01:19:12.361Z,2.62
2023-04-15T01:21:39.901Z,2.40
2023-04-15T01:24:06.407Z,2.47
2023-04-15T01:26:32.849Z,3.03
2023-04-15T01:28:59.435Z,2.78
2023-04-15T01:31:26.177Z,2.65
2023-04-15T01:33:53.017Z,2.80
2023-04-15T01:36:19.813Z,2.60
2023-04-15T01:38:46.576Z,2.95
2023-04-15T01:41:12.998Z,3.40
2023-04-15T01:43:39.462Z,3.03
2023-04-15T01:46:06.405Z,3.05
2023-04-15T01:48:33.616Z,3.28
2023-04-15T01:51:00.217Z,3.67
2023-04-15T01:53:26.673Z,3.58
2023-04-15T01:55:53.124Z,3.47
2023-04-15T01:58:19.591Z,3.47
2023-04-15T02:00:46.264Z,3.67
2023-04-15T02:03:12.776Z,3.47
2023-04-15T02:05:39.270Z,3.10
2023-04-15T02:08:06.265Z,3.53
2023-04-15T02:10:32.704Z,4.00
2023-04-15T02:12:59.156Z,3.50
2023-04-15T02:15:25.596Z,3.72
2023-04-15T02:17:55.441Z,3.78
2023-04-15T02:20:22.688Z,3.42
2023-04-15T02:22:49.177Z,3.90
2023-04-15T02:25:17.075Z,3.55
2023-04-15T02:27:44.552Z,3.95
2023-04-15T02:30:11.003Z,3.70
2023-04-15T02:32:38.386Z,4.00
2023-04-15T02:35:05.775Z,3.87
2023-04-15T02:37:32.233Z,3.87
2023-04-15T02:39:58.748Z,4.30
2023-04-15T02:42:27.956Z,4.00
2023-04-15T02:44:55.228Z,3.47
2023-04-15T02:47:21.747Z,3.80
2023-04-15T02:49:48.185Z,3.60
2023-04-15T02:52:14.624Z,3.42
2023-04-15T02:54:41.053Z,3.12
2023-04-15T02:57:07.600Z,3.55
2023-04-15T02:59:34.016Z,3.45
2023-04-15T03:02:03.923Z,3.90
2023-04-15T03:04:31.057Z,3.62
2023-04-15T03:06:57.720Z,3.97
2023-04-15T03:09:24.159Z,3.45
2023-04-15T03:11:52.601Z,3.55
2023-04-15T03:14:19.008Z,3.20
2023-04-15T03:16:45.421Z,3.58
2023-04-15T03:19:11.861Z,4.10
2023-04-15T03:21:38.331Z,3.83
2023-04-15T03:24:04.746Z,3.58
2023-04-15T03:26:31.190Z,3.45
2023-04-15T03:28:57.623Z,4.10
2023-04-15T03:31:24.168Z,3.70
2023-04-15T03:33:50.838Z,4.15
2023-04-15T03:36:17.476Z,3.40
2023-04-15T03:38:43.963Z,4.28
2023-04-15T03:41:10.413Z,3.95
2023-04-15T03:43:36.861Z,3.55
2023-04-15T03:46:03.356Z,3.70
2023-04-15T03:48:29.789Z,3.78
2023-04-15T03:50:56.359Z,3.80
2023-04-15T03:53:22.795Z,3.47
2023-04-15T03:55:49.212Z,3.67
2023-04-15T03:58:15.663Z,3.83
2023-04-15T04:00:42.661Z,3.95
2023-04-15T04:03:09.319Z,4.03
2023-04-15T04:05:39.144Z,3.95
2023-04-15T04:08:05.816Z,4.30
2023-04-15T04:10:32.267Z,3.67
2023-04-15T04:12:58.712Z,3.35
2023-04-15T04:15:25.131Z,4.45
2023-04-15T04:17:51.718Z,4.37
2023-04-15T04:20:18.188Z,4.40
2023-04-15T04:22:44.706Z,4.30
2023-04-15T04:25:11.410Z,4.50
2023-04-15T04:27:37.937Z,3.90
2023-04-15T04:30:04.437Z,4.35
2023-04-15T04:32:30.889Z,3.97
2023-04-15T04:34:57.310Z,4.40
2023-04-15T04:37:24.827Z,4.10
2023-04-15T04:39:51.367Z,4.28
2023-04-15T04:42:17.785Z,5.07
2023-04-15T04:44:44.217Z,4.70
2023-04-15T04:47:10.666Z,4.93
2023-04-15T04:49:37.107Z,4.95
2023-04-15T04:52:03.612Z,4.37
2023-04-15T04:54:31.392Z,5.07
2023-04-15T04:56:58.092Z,4.70
2023-04-15T04:59:24.512Z,4.15
2023-04-15T05:01:50.931Z,4.90
2023-04-15T05:04:17.432Z,4.55
2023-04-15T05:06:43.997Z,4.55
2023-04-15T05:09:10.750Z,4.47
2023-04-15T05:11:37.205Z,4.45
2023-04-15T05:14:03.632Z,4.87
2023-04-15T05:16:30.060Z,4.70
2023-04-15T05:18:56.936Z,4.18
2023-04-15T05:21:23.378Z,4.10
2023-04-15T05:23:49.783Z,4.37
2023-04-15T05:26:16.317Z,4.75
2023-04-15T05:28:42.783Z,4.25
2023-04-15T05:31:09.232Z,4.65
2023-04-15T05:33:35.691Z,3.90
2023-04-15T05:36:02.153Z,3.90
2023-04-15T05:38:28.619Z,3.85
2023-04-15T05:40:55.020Z,3.70
2023-04-15T05:43:21.779Z,3.53
2023-04-15T05:45:48.240Z,3.25
2023-04-15T05:48:14.749Z,3.08
2023-04-15T05:50:41.189Z,3.70
2023-04-15T05:53:08.466Z,3.37
2023-04-15T05:55:34.979Z,2.72
2023-04-15T05:58:01.475Z,3.15
2023-04-15T06:00:27.988Z,3.03
2023-04-15T06:02:55.189Z,2.42
2023-04-15T06:05:21.656Z,2.42
2023-04-15T06:07:48.733Z,3.05
2023-04-15T06:10:15.319Z,2.97
2023-04-15T06:12:41.818Z,2.25
2023-04-15T06:15:10.487Z,2.33
2023-04-15T06:17:37.330Z,2.10
2023-04-15T06:20:03.837Z,1.80
2023-04-15T06:22:30.257Z,1.65
2023-04-15T06:24:56.724Z,1.50
2023-04-15T06:27:23.387Z,1.62
2023-04-15T06:29:49.863Z,1.17
2023-04-15T06:32:16.483Z,1.27
2023-04-15T06:34:42.918Z,1.20
2023-04-15T06:37:11.322Z,1.20
2023-04-15T06:39:38.544Z,1.25
2023-04-15T06:42:05.090Z,1.58
2023-04-15T06:44:33.782Z,1.58
2023-04-15T06:47:00.536Z,1.87
2023-04-15T06:49:26.984Z,1.90
2023-04-15T06:51:53.445Z,1.83
2023-04-15T06:54:20.065Z,1.50
2023-04-15T06:56:46.514Z,1.23
2023-04-15T06:59:13.223Z,1.40
2023-04-15T07:01:39.656Z,1.20
2023-04-15T07:04:06.397Z,1.27
2023-04-15T07:06:33.106Z,1.12
2023-04-15T07:08:59.867Z,1.20
2023-04-15T07:11:26.695Z,1.30
2023-04-15T07:13:53.198Z,1.42
2023-04-15T07:16:19.740Z,3.62
